createdAt,value
2019-01-08T00:00:25.202Z,24.70
2019-01-08T00:02:53.954Z,25.33
2019-01-08T00:05:22.416Z,20.23
2019-01-08T00:07:50.920Z,20.30
2019-01-08T00:10:19.445Z,23.55
2019-01-08T00:12:48.231Z,24.33
2019-01-08T00:15:16.741Z,26.87
2019-01-08T00:17:45.257Z,27.10
2019-01-08T00:23:45.578Z,24.00
2019-01-08T00:26:14.065Z,26.07
2019-01-08T00:28:43.374Z,20.33
2019-01-08T00:31:11.433Z,27.42
2019-01-08T00:33:40.120Z,17.30
2019-01-08T00:36:09.113Z,22.23
2019-01-08T00:38:37.629Z,28.70
2019-01-08T00:41:06.146Z,25.57
2019-01-08T00:43:34.772Z,22.00
2019-01-08T00:46:03.329Z,27.43
2019-01-08T00:48:31.909Z,27.73
2019-01-08T00:51:00.406Z,21.53
2019-01-08T00:53:29.053Z,25.17
2019-01-08T00:55:57.513Z,27.57
2019-01-08T00:58:26.010Z,27.60
2019-01-08T01:00:54.856Z,23.87
2019-01-08T01:03:23.341Z,30.60
2019-01-08T01:05:51.885Z,29.03
2019-01-08T01:08:20.361Z,25.33
2019-01-08T01:10:48.836Z,28.20
2019-01-08T01:13:17.788Z,29.13
2019-01-08T01:15:46.293Z,21.33
2019-01-08T01:18:14.877Z,31.05
2019-01-08T01:20:43.517Z,27.60
2019-01-08T01:23:12.033Z,25.43
2019-01-08T01:25:40.540Z,25.83
2019-01-08T01:28:09.053Z,26.00
2019-01-08T01:30:37.628Z,28.33
2019-01-08T01:35:49.137Z,27.93
2019-01-08T01:38:17.630Z,27.67
2019-01-08T01:40:46.325Z,25.77
2019-01-08T01:43:15.112Z,27.43
2019-01-08T01:45:43.708Z,26.10
2019-01-08T01:48:12.188Z,27.37
2019-01-08T01:50:41.317Z,25.33
2019-01-08T01:53:09.872Z,26.43
2019-01-08T01:55:38.340Z,26.57
2019-01-08T01:58:06.912Z,20.17
2019-01-08T02:00:35.440Z,25.73
2019-01-08T02:03:05.018Z,25.03
2019-01-08T02:05:34.120Z,23.93
2019-01-08T02:08:02.652Z,25.33
2019-01-08T02:10:31.148Z,26.80
2019-01-08T02:12:59.651Z,25.30
2019-01-08T02:15:28.164Z,24.13
2019-01-08T02:17:57.368Z,23.57
2019-01-08T02:20:25.820Z,23.03
2019-01-08T02:22:54.407Z,26.53
2019-01-08T02:25:23.133Z,22.53
2019-01-08T02:27:51.740Z,25.60
2019-01-08T02:30:20.725Z,23.83
2019-01-08T02:32:49.520Z,23.97
2019-01-08T02:35:18.000Z,23.83
2019-01-08T02:37:46.864Z,24.07
2019-01-08T02:40:15.697Z,24.07
2019-01-08T02:42:44.253Z,25.30
2019-01-08T02:45:13.112Z,22.50
2019-01-08T02:47:41.704Z,24.47
2019-01-08T02:50:10.493Z,22.97
2019-01-08T02:52:38.944Z,20.13
2019-01-08T02:55:07.436Z,21.43
2019-01-08T02:57:35.920Z,22.70
2019-01-08T03:00:04.960Z,24.07
2019-01-08T03:02:33.452Z,23.60
2019-01-08T03:05:01.970Z,25.43
2019-01-08T03:07:30.784Z,26.13
2019-01-08T03:09:59.388Z,22.63
2019-01-08T03:12:28.037Z,19.33
2019-01-08T03:14:56.620Z,24.90
2019-01-08T03:17:25.116Z,23.87
2019-01-08T03:19:54.120Z,26.20
2019-01-08T03:22:23.139Z,25.90
2019-01-08T03:24:52.020Z,28.00
2019-01-08T03:27:20.463Z,25.12
2019-01-08T03:30:06.643Z,22.60
2019-01-08T03:32:35.220Z,26.70
2019-01-08T03:35:04.299Z,26.00
2019-01-08T03:37:33.103Z,26.13
2019-01-08T03:40:01.773Z,21.43
2019-01-08T03:42:30.624Z,25.60
2019-01-08T03:44:59.148Z,27.53
2019-01-08T03:47:27.919Z,26.27
2019-01-08T03:49:56.584Z,25.07
2019-01-08T03:52:25.379Z,27.50
2019-01-08T03:54:53.967Z,26.70
2019-01-08T03:57:22.443Z,26.57
2019-01-08T03:59:51.310Z,24.23
2019-01-08T04:02:20.261Z,24.23
2019-01-08T04:04:48.827Z,22.77
2019-01-08T04:07:17.340Z,21.35
2019-01-08T04:09:46.221Z,22.60
2019-01-08T04:12:15.387Z,23.13
2019-01-08T04:14:44.119Z,20.37
2019-01-08T04:17:13.032Z,19.07
2019-01-08T04:19:41.491Z,21.47
2019-01-08T04:22:10.083Z,23.10
2019-01-08T04:24:38.567Z,21.27
2019-01-08T04:27:07.049Z,20.67
2019-01-08T04:29:35.655Z,23.27
2019-01-08T04:32:04.564Z,20.77
2019-01-08T04:34:32.990Z,24.07
2019-01-08T04:37:01.811Z,18.03
2019-01-08T04:39:30.294Z,25.37
2019-01-08T04:41:58.758Z,21.93
2019-01-08T04:44:27.223Z,25.60
2019-01-08T04:46:55.763Z,25.57
2019-01-08T04:49:24.280Z,26.17
2019-01-08T04:51:54.067Z,25.27
2019-01-08T04:54:22.627Z,25.02
2019-01-08T04:56:51.087Z,23.20
2019-01-08T04:59:19.555Z,26.57
2019-01-08T05:01:48.735Z,22.93
2019-01-08T05:04:17.299Z,17.93
2019-01-08T05:06:46.458Z,22.17
2019-01-08T05:09:15.242Z,18.90
2019-01-08T05:11:44.279Z,22.37
2019-01-08T05:14:12.739Z,22.37
2019-01-08T05:16:41.205Z,19.83
2019-01-08T05:19:10.046Z,24.90
2019-01-08T05:21:38.858Z,25.50
2019-01-08T05:24:07.323Z,23.50
2019-01-08T05:26:35.811Z,22.60
2019-01-08T05:29:04.667Z,27.27
2019-01-08T05:31:33.142Z,24.83
2019-01-08T05:34:01.593Z,26.17
2019-01-08T05:36:30.250Z,26.30
2019-01-08T05:38:58.867Z,20.90
2019-01-08T05:41:27.322Z,22.77
2019-01-08T05:43:56.503Z,28.33
2019-01-08T05:46:25.682Z,26.40
2019-01-08T05:48:54.245Z,28.43
2019-01-08T05:51:23.146Z,31.15
2019-01-08T05:53:51.587Z,29.27
2019-01-08T05:56:20.350Z,27.47
2019-01-08T05:58:48.834Z,23.53
2019-01-08T06:01:18.038Z,29.23
2019-01-08T06:03:46.746Z,26.07
2019-01-08T06:06:15.222Z,26.47
2019-01-08T06:08:44.105Z,28.60
2019-01-08T06:11:12.814Z,31.40
2019-01-08T06:13:41.273Z,28.30
2019-01-08T06:16:10.298Z,28.70
2019-01-08T06:18:38.846Z,23.93
2019-01-08T06:21:07.307Z,26.37
2019-01-08T06:23:35.768Z,27.57
2019-01-08T06:26:04.738Z,27.23
2019-01-08T06:28:33.401Z,31.00
2019-01-08T06:31:01.922Z,28.20
2019-01-08T06:33:30.458Z,26.77
2019-01-08T06:35:59.002Z,27.27
2019-01-08T06:38:27.642Z,28.23
2019-01-08T06:40:57.667Z,29.33
2019-01-08T06:43:25.110Z,29.50
2019-01-08T06:45:53.570Z,30.70
2019-01-08T06:48:22.183Z,25.55
2019-01-08T06:50:56.065Z,31.10
2019-01-08T06:53:19.950Z,28.97
2019-01-08T06:55:48.446Z,26.67
2019-01-08T06:58:17.506Z,26.60
2019-01-08T07:00:46.115Z,29.93
2019-01-08T07:03:15.066Z,28.13
2019-01-08T07:05:43.873Z,31.23
2019-01-08T07:08:12.583Z,31.47
2019-01-08T07:10:41.122Z,30.10
2019-01-08T07:13:10.322Z,29.53
2019-01-08T07:15:38.964Z,30.70
2019-01-08T07:18:07.857Z,28.90
2019-01-08T07:20:36.489Z,31.90
2019-01-08T07:23:05.197Z,26.03
2019-01-08T07:25:41.923Z,27.37
2019-01-08T07:28:02.658Z,27.43
2019-01-08T07:30:31.310Z,27.63
2019-01-08T07:33:00.017Z,29.80
2019-01-08T07:35:28.485Z,29.17
2019-01-08T07:37:56.962Z,27.87
2019-01-08T07:40:25.453Z,26.90
2019-01-08T07:42:54.013Z,27.40
2019-01-08T07:45:22.749Z,30.93
2019-01-08T07:47:51.737Z,29.87
2019-01-08T07:50:20.769Z,29.67
2019-01-08T07:52:49.246Z,25.33
2019-01-08T07:55:17.761Z,29.20
2019-01-08T07:57:46.209Z,30.27
2019-01-08T08:00:14.702Z,27.00
2019-01-08T08:02:44.333Z,28.70
2019-01-08T08:05:13.018Z,31.37
2019-01-08T08:07:41.501Z,29.73
2019-01-08T08:10:09.989Z,28.60
2019-01-08T08:12:38.459Z,28.23
2019-01-08T08:15:07.554Z,28.23
2019-01-08T08:17:36.181Z,28.07
2019-01-08T08:20:06.437Z,30.60
2019-01-08T08:22:34.995Z,29.77
2019-01-08T08:25:03.593Z,30.20
2019-01-08T08:27:33.376Z,27.80
2019-01-08T08:30:01.899Z,29.37
2019-01-08T08:32:30.729Z,29.57
2019-01-08T08:35:07.903Z,27.33
2019-01-08T08:37:28.313Z,28.40
2019-01-08T08:39:56.877Z,28.63
2019-01-08T08:42:25.361Z,26.77
2019-01-08T08:44:54.218Z,28.00
2019-01-08T08:47:22.853Z,26.80
2019-01-08T08:49:51.357Z,25.37
2019-01-08T08:52:24.489Z,25.43
2019-01-08T08:54:56.389Z,25.30
2019-01-08T08:57:25.506Z,24.17
2019-01-08T08:59:54.153Z,25.20
2019-01-08T09:02:22.668Z,22.87
2019-01-08T09:04:51.166Z,23.63
2019-01-08T09:07:20.231Z,25.20
2019-01-08T09:09:48.177Z,26.67
2019-01-08T09:12:20.797Z,27.37
2019-01-08T09:14:49.349Z,26.77
2019-01-08T09:17:17.906Z,26.83
2019-01-08T09:19:46.561Z,27.07
2019-01-08T09:22:15.509Z,26.67
2019-01-08T09:24:44.161Z,25.80
2019-01-08T09:27:12.677Z,25.87
2019-01-08T09:29:41.617Z,26.07
2019-01-08T09:32:10.249Z,25.00
2019-01-08T09:34:38.999Z,25.60
2019-01-08T09:37:07.593Z,28.30
2019-01-08T09:39:36.108Z,27.80
2019-01-08T09:42:05.121Z,26.10
2019-01-08T09:44:34.189Z,26.27
2019-01-08T09:47:02.713Z,27.17
2019-01-08T09:49:31.181Z,25.13
2019-01-08T09:51:59.965Z,24.40
2019-01-08T09:54:28.441Z,25.27
2019-01-08T09:56:57.296Z,26.17
2019-01-08T09:59:27.073Z,25.47
2019-01-08T10:01:55.618Z,26.07
2019-01-08T10:04:24.129Z,26.50
2019-01-08T10:06:52.587Z,25.63
2019-01-08T10:09:21.116Z,26.60
2019-01-08T10:11:49.612Z,27.93
2019-01-08T10:14:18.912Z,29.27
2019-01-08T10:16:47.656Z,29.60
2019-01-08T10:19:17.684Z,29.07
2019-01-08T10:21:46.796Z,32.80
2019-01-08T10:24:15.423Z,32.50
2019-01-08T10:26:44.286Z,29.80
2019-01-08T10:29:13.004Z,32.30
2019-01-08T10:31:41.558Z,31.87
2019-01-08T10:34:10.384Z,32.07
2019-01-08T10:36:41.468Z,32.13
2019-01-08T10:39:10.080Z,30.27
2019-01-08T10:41:38.652Z,31.73
2019-01-08T10:44:07.220Z,28.23
2019-01-08T10:49:35.517Z,30.07
2019-01-08T10:52:04.789Z,32.20
2019-01-08T10:54:33.646Z,29.97
2019-01-08T10:57:02.752Z,28.60
2019-01-08T10:59:31.736Z,29.20
2019-01-08T11:02:00.304Z,29.23
2019-01-08T11:04:29.111Z,28.27
2019-01-08T11:06:57.737Z,29.00
2019-01-08T11:09:26.844Z,27.97
2019-01-08T11:11:55.728Z,28.07
2019-01-08T11:14:24.600Z,29.23
2019-01-08T11:16:53.484Z,27.87
2019-01-08T11:19:22.350Z,31.20
2019-01-08T11:21:51.224Z,29.23
2019-01-08T11:24:20.344Z,30.23
2019-01-08T11:26:49.116Z,29.83
2019-01-08T11:29:17.864Z,29.45
2019-01-08T11:31:48.927Z,28.90
2019-01-08T11:34:15.636Z,26.20
2019-01-08T11:36:44.293Z,26.10
2019-01-08T11:39:12.892Z,26.30
2019-01-08T11:41:41.564Z,26.67
2019-01-08T11:44:10.573Z,27.85
2019-01-08T11:46:40.104Z,26.77
2019-01-08T11:49:08.664Z,27.90
2019-01-08T11:51:37.500Z,27.10
2019-01-08T11:54:06.320Z,26.73
2019-01-08T11:56:35.116Z,28.43
2019-01-08T11:59:03.772Z,29.73
2019-01-08T12:01:33.276Z,26.73
2019-01-08T12:04:01.876Z,25.63
2019-01-08T12:06:30.847Z,24.07
2019-01-08T12:08:59.488Z,26.70
2019-01-08T12:11:28.090Z,25.57
2019-01-08T12:13:56.668Z,24.23
2019-01-08T12:16:25.251Z,24.70
2019-01-08T12:18:54.100Z,25.13
2019-01-08T12:21:22.756Z,24.97
2019-01-08T12:23:51.244Z,23.77
2019-01-08T12:26:19.764Z,24.90
2019-01-08T12:28:48.263Z,25.75
2019-01-08T12:31:16.759Z,25.60
2019-01-08T12:33:45.567Z,24.30
2019-01-08T12:36:14.470Z,26.13
2019-01-08T12:38:42.947Z,25.53
2019-01-08T12:41:11.567Z,26.93
2019-01-08T12:43:40.159Z,26.50
2019-01-08T12:46:08.792Z,26.70
2019-01-08T12:48:37.355Z,23.73
2019-01-08T12:51:06.115Z,24.00
2019-01-08T12:53:34.612Z,25.70
2019-01-08T12:56:03.076Z,23.33
2019-01-08T12:58:31.591Z,23.60
2019-01-08T13:01:00.263Z,24.10
2019-01-08T13:03:28.717Z,24.90
2019-01-08T13:05:57.195Z,25.70
2019-01-08T13:08:25.963Z,23.63
2019-01-08T13:10:54.901Z,22.10
2019-01-08T13:13:23.385Z,22.30
2019-01-08T13:15:51.834Z,22.20
2019-01-08T13:18:20.591Z,24.83
2019-01-08T13:20:49.067Z,26.57
2019-01-08T13:23:17.915Z,25.02
2019-01-08T13:25:46.598Z,24.93
2019-01-08T13:28:15.342Z,23.40
2019-01-08T13:30:44.783Z,24.00
2019-01-08T13:33:13.654Z,23.27
2019-01-08T13:36:12.975Z,24.63
2019-01-08T13:38:41.888Z,24.03
2019-01-08T13:41:10.439Z,24.33
2019-01-08T13:43:39.255Z,24.73
2019-01-08T13:46:08.082Z,25.50
2019-01-08T13:48:37.039Z,24.90
2019-01-08T13:51:05.772Z,25.27
2019-01-08T13:53:34.698Z,25.67
2019-01-08T13:56:03.642Z,24.90
2019-01-08T13:58:32.800Z,25.97
2019-01-08T14:01:01.610Z,26.60
2019-01-08T14:03:30.474Z,26.63
2019-01-08T14:05:59.398Z,27.37
2019-01-08T14:08:28.670Z,25.40
2019-01-08T14:10:57.662Z,28.67
2019-01-08T14:13:26.790Z,27.47
2019-01-08T14:15:55.500Z,24.10
2019-01-08T14:18:24.178Z,26.47
2019-01-08T14:20:53.350Z,25.60
2019-01-08T14:23:22.150Z,25.57
2019-01-08T14:25:51.182Z,26.40
2019-01-08T14:28:19.999Z,25.63
2019-01-08T14:30:48.870Z,26.57
2019-01-08T14:36:02.774Z,24.27
2019-01-08T14:38:31.992Z,25.83
2019-01-08T14:41:01.242Z,25.93
2019-01-08T14:43:31.058Z,26.63
2019-01-08T14:46:00.754Z,23.50
2019-01-08T14:48:29.727Z,25.93
2019-01-08T14:50:58.709Z,25.70
2019-01-08T14:53:28.194Z,25.90
2019-01-08T14:55:57.526Z,26.73
2019-01-08T14:58:28.442Z,27.70
2019-01-08T15:00:57.650Z,26.53
2019-01-08T15:03:26.951Z,25.50
2019-01-08T15:05:55.966Z,24.67
2019-01-08T15:08:24.785Z,26.90
2019-01-08T15:10:53.663Z,26.53
2019-01-08T15:13:22.306Z,26.57
2019-01-08T15:15:52.718Z,26.10
2019-01-08T15:18:21.562Z,25.40
2019-01-08T15:20:50.479Z,26.77
2019-01-08T15:23:19.510Z,25.30
2019-01-08T15:25:48.739Z,26.03
2019-01-08T15:28:17.938Z,24.00
2019-01-08T15:30:46.911Z,25.03
2019-01-08T15:33:16.252Z,26.70
2019-01-08T15:35:45.228Z,26.47
2019-01-08T15:38:13.942Z,25.63
2019-01-08T15:40:43.502Z,26.93
2019-01-08T15:43:12.247Z,27.33
2019-01-08T15:45:41.458Z,27.37
2019-01-08T15:48:10.356Z,29.30
2019-01-08T15:50:38.994Z,28.90
2019-01-08T15:53:07.631Z,26.50
2019-01-08T15:55:36.351Z,28.50
2019-01-08T15:58:04.959Z,28.20
2019-01-08T16:00:33.635Z,28.23
2019-01-08T16:03:07.219Z,28.37
2019-01-08T16:05:31.244Z,28.87
2019-01-08T16:08:00.595Z,30.00
2019-01-08T16:10:30.283Z,29.27
2019-01-08T16:12:59.075Z,28.87
2019-01-08T16:15:27.971Z,27.93
2019-01-08T16:17:56.862Z,29.77
2019-01-08T16:20:27.599Z,28.23
2019-01-08T16:22:56.485Z,29.20
2019-01-08T16:25:25.276Z,27.53
2019-01-08T16:27:54.099Z,27.90
2019-01-08T16:30:23.255Z,27.10
2019-01-08T16:32:52.330Z,30.47
2019-01-08T16:35:21.283Z,28.70
2019-01-08T16:37:50.206Z,27.60
2019-01-08T16:40:19.279Z,28.70
2019-01-08T16:42:48.115Z,28.50
2019-01-08T16:45:17.102Z,27.07
2019-01-08T16:47:45.948Z,28.00
2019-01-08T16:50:15.230Z,25.07
2019-01-08T16:52:44.199Z,29.10
2019-01-08T16:55:13.174Z,28.43
2019-01-08T16:57:41.863Z,29.50
2019-01-08T17:00:11.635Z,29.50
2019-01-08T17:02:40.498Z,30.60
2019-01-08T17:05:09.658Z,29.53
2019-01-08T17:07:38.251Z,28.93
2019-01-08T17:10:07.526Z,29.83
2019-01-08T17:12:36.558Z,29.53
2019-01-08T17:15:06.275Z,30.87
2019-01-08T17:17:35.782Z,29.87
2019-01-08T17:20:05.046Z,30.17
2019-01-08T17:22:34.010Z,28.23
2019-01-08T17:25:02.870Z,30.13
2019-01-08T17:27:31.678Z,29.00
2019-01-08T17:30:00.666Z,31.03
2019-01-08T17:32:29.814Z,30.27
2019-01-08T17:34:58.518Z,29.70
2019-01-08T17:37:36.389Z,28.53
2019-01-08T17:40:05.943Z,32.00
2019-01-08T17:42:34.744Z,30.77
2019-01-08T17:45:03.914Z,31.40
2019-01-08T17:47:32.568Z,33.60
2019-01-08T17:50:01.331Z,28.87
2019-01-08T17:52:30.240Z,29.30
2019-01-08T17:54:58.954Z,30.60
2019-01-08T17:57:27.964Z,30.03
2019-01-08T17:59:57.520Z,31.17
2019-01-08T18:02:26.822Z,29.10
2019-01-08T18:04:56.972Z,28.13
2019-01-08T18:07:26.463Z,27.27
2019-01-08T18:09:55.321Z,25.90
2019-01-08T18:12:24.012Z,29.12
2019-01-08T18:14:53.381Z,29.90
2019-01-08T18:17:22.510Z,29.07
2019-01-08T18:19:51.293Z,26.10
2019-01-08T18:22:19.894Z,27.25
2019-01-08T18:24:48.524Z,26.80
2019-01-08T18:27:17.387Z,25.13
2019-01-08T18:29:46.266Z,25.60
2019-01-08T18:32:14.864Z,24.43
2019-01-08T18:34:43.415Z,25.00
2019-01-08T18:37:12.135Z,24.57
2019-01-08T18:39:40.708Z,22.52
2019-01-08T18:42:09.244Z,24.05
2019-01-08T18:44:38.805Z,23.17
2019-01-08T18:47:07.620Z,24.23
2019-01-08T18:49:36.296Z,24.35
2019-01-08T18:52:05.107Z,24.60
2019-01-08T18:54:34.182Z,23.77
2019-01-08T18:57:02.663Z,22.77
2019-01-08T18:59:31.387Z,25.32
2019-01-08T19:02:00.523Z,23.80
2019-01-08T19:04:29.396Z,24.67
2019-01-08T19:06:58.183Z,26.02
2019-01-08T19:09:29.843Z,25.23
2019-01-08T19:11:58.705Z,23.83
2019-01-08T19:14:30.552Z,25.30
2019-01-08T19:16:59.495Z,25.87
2019-01-08T19:19:28.624Z,24.73
2019-01-08T19:21:57.324Z,23.40
2019-01-08T19:24:26.028Z,24.10
2019-01-08T19:26:54.683Z,23.33
2019-01-08T19:29:23.485Z,23.50
2019-01-08T19:31:52.293Z,23.87
2019-01-08T19:34:21.304Z,25.17
2019-01-08T19:36:50.285Z,24.77
2019-01-08T19:39:19.070Z,23.60
2019-01-08T19:41:47.836Z,24.02
2019-01-08T19:44:16.535Z,23.57
2019-01-08T19:46:45.171Z,24.50
2019-01-08T19:49:13.902Z,24.37
2019-01-08T19:51:42.639Z,26.20
2019-01-08T19:54:11.315Z,27.42
2019-01-08T19:56:40.127Z,28.10
2019-01-08T19:59:08.799Z,27.30
2019-01-08T20:01:37.687Z,28.83
2019-01-08T20:04:06.479Z,27.37
2019-01-08T20:06:35.138Z,28.13
2019-01-08T20:09:03.864Z,25.33
2019-01-08T20:11:32.423Z,26.73
2019-01-08T20:14:01.098Z,29.03
2019-01-08T20:16:29.778Z,27.37
2019-01-08T20:18:58.338Z,28.53
2019-01-08T20:21:26.859Z,26.27
2019-01-08T20:23:55.426Z,29.07
2019-01-08T20:26:23.947Z,28.10
2019-01-08T20:28:52.461Z,27.60
2019-01-08T20:31:21.267Z,27.37
2019-01-08T20:33:50.150Z,29.73
2019-01-08T20:36:18.928Z,29.77
2019-01-08T20:38:47.602Z,27.50
2019-01-08T20:43:59.223Z,29.87
2019-01-08T20:46:28.244Z,28.30
2019-01-08T20:48:56.955Z,28.00
2019-01-08T20:51:25.695Z,28.60
2019-01-08T20:53:54.638Z,26.00
2019-01-08T20:56:23.338Z,25.43
2019-01-08T20:58:52.242Z,26.77
2019-01-08T21:01:20.910Z,25.03
2019-01-08T21:03:49.607Z,26.03
2019-01-08T21:06:18.927Z,26.50
2019-01-08T21:08:48.019Z,26.77
2019-01-08T21:11:16.670Z,26.13
2019-01-08T21:13:45.350Z,26.87
2019-01-08T21:16:14.071Z,25.90
2019-01-08T21:18:42.779Z,25.00
2019-01-08T21:21:11.399Z,26.53
2019-01-08T21:23:40.043Z,24.53
2019-01-08T21:26:08.754Z,25.53
2019-01-08T21:28:38.198Z,26.13
2019-01-08T21:31:07.158Z,25.80
2019-01-08T21:33:36.135Z,24.27
2019-01-08T21:36:05.578Z,25.37
2019-01-08T21:38:34.310Z,24.43
2019-01-08T21:41:03.012Z,25.47
2019-01-08T21:43:31.690Z,24.33
2019-01-08T21:46:00.470Z,25.87
2019-01-08T21:48:29.186Z,24.60
2019-01-08T21:50:57.922Z,24.87
2019-01-08T21:53:27.174Z,23.73
2019-01-08T21:55:55.959Z,23.47
2019-01-08T21:58:24.758Z,25.80
2019-01-08T22:00:53.650Z,24.00
2019-01-08T22:03:22.582Z,23.60
2019-01-08T22:05:51.730Z,25.23
2019-01-08T22:08:20.638Z,25.00
2019-01-08T22:10:50.843Z,25.10
2019-01-08T22:13:19.766Z,25.07
2019-01-08T22:15:48.499Z,26.27
2019-01-08T22:18:17.211Z,22.90
2019-01-08T22:20:45.874Z,25.07
2019-01-08T22:23:14.850Z,25.92
2019-01-08T22:25:43.818Z,25.10
2019-01-08T22:28:12.594Z,25.92
2019-01-08T22:30:46.962Z,25.72
2019-01-08T22:33:16.771Z,26.80
2019-01-08T22:35:44.803Z,24.90
2019-01-08T22:38:13.888Z,25.93
2019-01-08T22:40:44.363Z,25.97
2019-01-08T22:43:15.273Z,27.00
2019-01-08T22:45:45.429Z,26.40
2019-01-08T22:48:14.387Z,27.13
2019-01-08T22:50:43.334Z,28.50
2019-01-08T22:53:12.402Z,26.60
2019-01-08T22:55:42.662Z,25.93
2019-01-08T22:58:11.874Z,26.33
2019-01-08T23:00:51.782Z,26.50
2019-01-08T23:03:20.742Z,26.90
2019-01-08T23:05:51.601Z,27.77
2019-01-08T23:08:19.766Z,26.87
2019-01-08T23:10:48.694Z,26.77
2019-01-08T23:13:17.794Z,25.90
2019-01-08T23:15:46.807Z,27.80
2019-01-08T23:18:15.570Z,26.37
2019-01-08T23:20:45.422Z,26.93
2019-01-08T23:23:14.091Z,26.12
2019-01-08T23:25:43.351Z,25.33
2019-01-08T23:28:12.812Z,26.67
2019-01-08T23:30:42.926Z,25.20
2019-01-08T23:34:14.398Z,24.63
2019-01-08T23:36:43.190Z,24.17
2019-01-08T23:39:12.870Z,24.35
2019-01-08T23:41:41.615Z,23.03
2019-01-08T23:44:11.014Z,24.80
2019-01-08T23:46:48.270Z,22.80
2019-01-08T23:49:23.562Z,24.17
2019-01-08T23:51:59.022Z,23.97
2019-01-08T23:54:27.815Z,23.53
2019-01-08T23:56:57.110Z,25.27
2019-01-08T23:59:27.298Z,23.33
